National Weather Service United States Department of Commerce
Click Here for Latest Airport Weather Warnings
 
Latest Huntsville TAF


000
FTUS44 KHUN 261125
TAFHSV
TAF
KHSV 261125Z 2612/2712 01010G15KT P6SM FEW250
FM261500 02013G19KT P6SM SCT250
FM270000 03006KT P6SM SKC=

Latest Muscle Shoals TAF


000
FTUS44 KHUN 261125
TAFMSL
TAF
KMSL 261125Z 2612/2712 02010G17KT P6SM FEW250
FM261500 03012G17KT P6SM SCT250
FM270100 VRB03KT P6SM SKC=


Back to Main Huntsville Weather Forecast Office Page